Time;durP1;ratioP1;P1;durP2;ratioP2;P2;SDS_P1;SDS_P2;PMS_P1;PMS_P2;Temp;Humidity;BMP_temperature;BMP_pressure;BME280_temperature;BME280_humidity;BME280_pressure;Samples;Min_cycle;Max_cycle;Signal;HPM_P1;HPM_P2
2022/11/22 00:00:27;;;;;;;15.75;7.93;;;;;;;6.00;100.00;99072.75;5007326;28;20038;-69
2022/11/22 00:02:53;;;;;;;14.80;8.57;;;;;;;5.99;100.00;99065.66;5008477;28;20029;-70
2022/11/22 00:05:19;;;;;;;15.50;7.90;;;;;;;6.01;100.00;99073.56;4996689;28;20507;-70
2022/11/22 00:07:45;;;;;;;14.65;8.27;;;;;;;6.01;100.00;99079.84;5003380;28;20120;-70
2022/11/22 00:10:11;;;;;;;16.35;8.02;;;;;;;6.01;100.00;99074.41;5008615;28;20484;-70
2022/11/22 00:12:37;;;;;;;15.35;8.00;;;;;;;6.03;100.00;99072.25;5007024;28;20105;-70
2022/11/22 00:15:03;;;;;;;17.02;8.25;;;;;;;6.03;100.00;99071.41;5006055;28;20112;-69
2022/11/22 00:17:30;;;;;;;14.02;7.90;;;;;;;6.04;100.00;99063.03;5006322;28;20034;-69
2022/11/22 00:19:55;;;;;;;13.27;7.03;;;;;;;6.06;100.00;99060.88;5007397;28;20510;-69
2022/11/22 00:22:20;;;;;;;14.35;7.60;;;;;;;6.06;100.00;99063.59;5005463;28;20069;-68
2022/11/22 00:24:46;;;;;;;13.95;7.78;;;;;;;6.06;100.00;99062.75;5002965;28;20377;-69
2022/11/22 00:27:11;;;;;;;18.05;7.85;;;;;;;6.05;100.00;99064.66;5007769;28;20041;-68
2022/11/22 00:29:37;;;;;;;14.45;6.95;;;;;;;6.05;100.00;99064.66;5007774;28;20459;-68
2022/11/22 00:32:03;;;;;;;14.93;7.57;;;;;;;6.06;100.00;99065.50;5006035;28;20520;-68
2022/11/22 00:34:28;;;;;;;13.85;7.45;;;;;;;6.04;100.00;99054.84;5004084;28;20044;-70
2022/11/22 00:36:53;;;;;;;13.20;7.00;;;;;;;6.05;100.00;99061.13;5006077;28;20381;-70
2022/11/22 00:39:18;;;;;;;16.45;7.43;;;;;;;6.06;100.00;99060.88;5008123;28;20091;-68
2022/11/22 00:41:44;;;;;;;13.13;7.05;;;;;;;6.05;100.00;99063.84;5006342;28;20784;-68
2022/11/22 00:44:09;;;;;;;13.40;6.70;;;;;;;6.04;100.00;99062.19;5005136;28;20124;-70
2022/11/22 00:46:34;;;;;;;13.38;7.07;;;;;;;6.06;100.00;99065.50;5007908;28;20030;-69
2022/11/22 00:48:59;;;;;;;14.73;7.07;;;;;;;6.06;100.00;99058.13;5006596;28;20022;-70
2022/11/22 00:51:25;;;;;;;14.85;7.15;;;;;;;6.09;100.00;99067.72;4993980;28;20041;-69
2022/11/22 00:53:50;;;;;;;12.77;7.20;;;;;;;6.11;100.00;99065.56;4993806;28;20060;-68
2022/11/22 00:56:15;;;;;;;16.00;7.50;;;;;;;6.12;100.00;99059.88;5007669;28;20033;-68
2022/11/22 00:58:40;;;;;;;12.00;6.95;;;;;;;6.12;100.00;99059.88;5005404;28;20022;-68
2022/11/22 01:01:06;;;;;;;12.35;6.88;;;;;;;6.12;100.00;99056.31;4998898;28;20500;-70
2022/11/22 01:03:31;;;;;;;11.60;6.90;;;;;;;6.11;100.00;99058.22;5006403;28;20051;-70
2022/11/22 01:05:56;;;;;;;11.75;6.45;;;;;;;6.06;100.00;99063.59;5006777;28;20025;-69
2022/11/22 01:08:22;;;;;;;14.82;7.03;;;;;;;6.06;100.00;99055.41;4997628;28;20125;-69
2022/11/22 01:10:47;;;;;;;12.80;6.88;;;;;;;6.03;100.00;99050.44;4987871;28;20034;-67
2022/11/22 01:13:12;;;;;;;14.13;6.63;;;;;;;6.02;100.00;99053.41;5002169;28;20133;-69
2022/11/22 01:15:38;;;;;;;12.23;6.75;;;;;;;6.02;100.00;99056.97;5007803;28;20034;-69
2022/11/22 01:18:03;;;;;;;11.68;6.25;;;;;;;5.98;100.00;99053.06;5007487;28;20050;-69
2022/11/22 01:20:29;;;;;;;13.20;6.32;;;;;;;5.95;100.00;99068.03;5006925;28;20034;-69
2022/11/22 01:22:55;;;;;;;12.90;5.95;;;;;;;5.91;100.00;99063.28;5006045;28;20401;-69
2022/11/22 01:25:20;;;;;;;13.30;6.32;;;;;;;5.87;100.00;99064.81;5006902;28;20030;-69
2022/11/22 01:27:46;;;;;;;11.35;5.85;;;;;;;5.84;100.00;99071.59;5005501;28;20076;-69
2022/11/22 01:30:12;;;;;;;13.75;5.82;;;;;;;5.81;100.00;99065.81;4992635;28;20030;-67
2022/11/22 01:32:37;;;;;;;17.00;6.32;;;;;;;5.80;100.00;99069.59;4996091;28;20049;-68
2022/11/22 01:35:02;;;;;;;13.43;5.75;;;;;;;5.76;100.00;99060.25;5006101;28;20034;-70
2022/11/22 01:37:28;;;;;;;15.25;6.03;;;;;;;5.73;100.00;99056.97;4998243;28;20026;-67
2022/11/22 01:39:53;;;;;;;12.80;5.55;;;;;;;5.69;100.00;99066.69;4987558;28;20469;-69
2022/11/22 01:42:18;;;;;;;15.40;6.03;;;;;;;5.66;100.00;99067.16;5000505;28;20037;-69
2022/11/22 01:44:46;;;;;;;14.30;5.40;;;;;;;5.66;100.00;99075.34;5006547;28;20041;-70
2022/11/22 01:47:14;;;;;;;13.75;5.18;;;;;;;5.62;100.00;99079.59;5005953;28;20416;-68
2022/11/22 01:49:59;;;;;;;14.77;5.88;;;;;;;5.63;100.00;99070.38;4988517;28;20121;-69
2022/11/22 01:52:28;;;;;;;13.85;4.95;;;;;;;5.58;100.00;99078.47;4994013;28;20707;-68
2022/11/22 01:55:01;;;;;;;15.73;6.57;;;;;;;5.58;100.00;99085.81;5005740;28;20500;-71
2022/11/22 01:57:31;;;;;;;14.15;5.15;;;;;;;5.61;100.00;99088.03;5005847;28;20080;-70
2022/11/22 02:00:04;;;;;;;13.68;5.28;;;;;;;5.56;100.00;99088.75;5005798;28;20049;-70
2022/11/22 02:02:30;;;;;;;14.45;5.40;;;;;;;5.56;100.00;99094.19;5004700;28;20037;-70
2022/11/22 02:04:57;;;;;;;13.25;5.20;;;;;;;5.56;100.00;99088.75;5052120;22;20413;-66
2022/11/22 02:07:35;;;;;;;18.67;5.80;;;;;;;5.53;100.00;99094.69;4999658;28;20061;-67
2022/11/22 02:10:00;;;;;;;;;;;;;;;5.57;100.00;99093.13;5006220;28;20041;-66
2022/11/22 02:12:29;;;;;;;15.07;4.97;;;;;;;5.53;100.00;99100.13;5007155;28;19918;-66
2022/11/22 02:14:54;;;;;;;12.00;4.70;;;;;;;5.52;100.00;99106.63;5000241;28;20041;-67
2022/11/22 02:17:20;;;;;;;14.98;4.47;;;;;;;5.52;100.00;99103.06;5001688;28;20030;-67
2022/11/22 02:19:48;;;;;;;17.05;4.90;;;;;;;5.53;100.00;99102.84;5011122;28;20116;-67
2022/11/22 02:22:19;;;;;;;12.93;4.18;;;;;;;5.51;100.00;99110.41;5028390;28;20025;-67
2022/11/22 02:24:52;;;;;;;12.80;4.20;;;;;;;5.48;100.00;99108.19;5020839;28;20322;-65
2022/11/22 02:27:17;;;;;;;13.13;4.55;;;;;;;5.48;100.00;99097.31;5007911;28;20045;-66
2022/11/22 02:29:43;;;;;;;15.60;4.70;;;;;;;5.47;100.00;99101.94;5008451;28;20045;-68
2022/11/22 02:32:08;;;;;;;16.30;4.78;;;;;;;5.45;100.00;99095.88;5027323;28;20045;-67
2022/11/22 02:34:45;;;;;;;12.43;4.03;;;;;;;5.47;100.00;99106.53;5025143;28;20033;-67
2022/11/22 02:37:13;;;;;;;13.07;4.10;;;;;;;5.46;100.00;99100.25;5008924;28;20116;-65
2022/11/22 02:39:40;;;;;;;16.63;4.25;;;;;;;5.46;100.00;99104.88;5014933;28;20053;-67
2022/11/22 02:42:06;;;;;;;14.95;4.10;;;;;;;5.45;100.00;99103.22;5007608;28;20026;-68
2022/11/22 02:44:32;;;;;;;14.45;4.35;;;;;;;5.46;100.00;99099.44;5024800;28;20081;-67
2022/11/22 02:46:58;;;;;;;17.55;3.83;;;;;;;5.41;100.00;99102.03;5024863;28;20148;-67
2022/11/22 02:49:24;;;;;;;15.57;4.07;;;;;;;5.39;100.00;99112.34;5009236;28;20132;-67
2022/11/22 02:51:51;;;;;;;17.60;3.55;;;;;;;5.40;100.00;99116.72;5026062;28;20104;-67
2022/11/22 02:54:17;;;;;;;18.40;3.72;;;;;;;5.36;100.00;99115.53;5028468;28;20029;-67
2022/11/22 02:56:42;;;;;;;17.05;4.90;;;;;;;5.34;100.00;99117.69;5024800;28;20040;-67
2022/11/22 02:59:07;;;;;;;15.13;3.92;;;;;;;5.34;100.00;99128.56;5023422;28;20029;-67
2022/11/22 03:01:33;;;;;;;15.60;3.85;;;;;;;5.33;100.00;99125.03;5029130;28;20021;-67
2022/11/22 03:03:58;;;;;;;17.65;3.80;;;;;;;5.32;100.00;99123.38;5027301;28;20443;-66
2022/11/22 03:06:23;;;;;;;16.08;4.20;;;;;;;5.28;100.00;99124.09;5026668;28;20037;-66
2022/11/22 03:08:48;;;;;;;12.25;3.55;;;;;;;5.28;100.00;99121.38;5018191;28;20026;-66
2022/11/22 03:11:14;;;;;;;16.02;4.22;;;;;;;5.25;100.00;99122.66;5026731;28;20080;-67
2022/11/22 03:13:39;;;;;;;15.30;3.95;;;;;;;5.22;100.00;99125.88;5022736;28;20030;-70
2022/11/22 03:16:05;;;;;;;19.45;4.35;;;;;;;5.24;100.00;99115.56;5008284;28;20483;-67
2022/11/22 03:18:32;;;;;;;16.83;3.85;;;;;;;5.17;100.00;99129.31;5008101;28;20762;-69
2022/11/22 03:21:09;;;;;;;19.67;4.50;;;;;;;5.20;100.00;99136.97;5007459;28;20758;-70
2022/11/22 03:23:35;;;;;;;15.65;4.30;;;;;;;5.20;100.00;99134.25;5007264;28;20376;-70
2022/11/22 03:26:07;;;;;;;16.65;3.85;;;;;;;5.17;100.00;99142.06;5020213;28;20029;-67
2022/11/22 03:28:33;;;;;;;19.58;4.32;;;;;;;5.09;100.00;99137.81;5027476;28;20117;-70
2022/11/22 03:30:58;;;;;;;14.93;3.70;;;;;;;5.09;100.00;99142.44;5026977;28;20132;-68
2022/11/22 03:33:23;;;;;;;12.32;3.65;;;;;;;5.05;100.00;99149.41;5026945;28;20025;-70
2022/11/22 03:35:48;;;;;;;18.40;3.85;;;;;;;5.02;100.00;99142.56;5014718;28;20025;-69
2022/11/22 03:38:14;;;;;;;14.63;3.65;;;;;;;5.00;100.00;99152.84;5026819;28;20029;-70
2022/11/22 03:40:39;;;;;;;13.85;3.83;;;;;;;4.99;100.00;99143.03;5027500;28;20045;-69
2022/11/22 03:43:04;;;;;;;19.30;4.05;;;;;;;4.90;100.00;99150.69;5018607;28;20033;-69
2022/11/22 03:45:30;;;;;;;14.73;3.80;;;;;;;4.90;100.00;99147.16;5009283;28;20488;-69
2022/11/22 03:47:56;;;;;;;14.60;3.92;;;;;;;4.84;100.00;99156.25;5007973;28;20084;-69
2022/11/22 03:50:22;;;;;;;19.80;4.20;;;;;;;4.78;100.00;99152.59;5019819;28;20075;-69
2022/11/22 03:52:47;;;;;;;17.80;4.15;;;;;;;4.78;100.00;99152.59;5024828;28;20099;-69
2022/11/22 03:55:13;;;;;;;19.67;4.13;;;;;;;4.72;100.00;99156.25;5006473;28;20033;-70
2022/11/22 03:57:38;;;;;;;16.25;3.78;;;;;;;4.73;100.00;99154.38;5008484;28;20041;-67
2022/11/22 04:00:04;;;;;;;14.60;4.32;;;;;;;4.72;100.00;99163.59;5027267;28;20061;-69
2022/11/22 04:02:30;;;;;;;18.20;4.90;;;;;;;4.65;100.00;99160.94;5027961;28;20071;-70
2022/11/22 04:04:55;;;;;;;17.40;4.57;;;;;;;4.64;100.00;99164.75;5014432;28;20443;-69
2022/11/22 04:07:21;;;;;;;13.82;3.75;;;;;;;4.66;100.00;99170.75;5007224;28;20032;-70
2022/11/22 04:09:46;;;;;;;17.52;4.25;;;;;;;4.62;100.00;99161.44;5007902;28;20030;-68
2022/11/22 04:12:11;;;;;;;18.65;4.00;;;;;;;4.58;100.00;99163.78;5022423;28;20041;-68
2022/11/22 04:17:39;;;;;;;15.57;4.63;;;;;;;4.56;100.00;99163.19;5007700;28;20396;-68
2022/11/22 04:23:00;;;;;;;20.85;4.40;;;;;;;4.46;100.00;99172.97;4991073;28;20049;-69
2022/11/22 04:25:28;;;;;;;16.60;4.70;;;;;;;4.49;100.00;99184.22;5006554;28;20175;-69
2022/11/22 04:27:54;;;;;;;17.95;4.20;;;;;;;4.43;100.00;99190.56;5020988;28;20026;-68
2022/11/22 04:30:19;;;;;;;15.25;4.28;;;;;;;4.38;100.00;99185.84;5005299;28;20065;-69
2022/11/22 04:32:45;;;;;;;18.83;4.25;;;;;;;4.39;100.00;99179.31;4995216;28;20027;-69
2022/11/22 04:35:15;;;;;;;16.45;3.60;;;;;;;4.35;100.00;99185.44;4999680;28;20073;-68
2022/11/22 04:37:41;;;;;;;13.85;4.00;;;;;;;4.33;100.00;99182.16;5007342;28;20080;-70
2022/11/22 04:40:07;;;;;;;13.75;4.45;;;;;;;4.33;100.00;99179.44;4998014;28;20027;-69
2022/11/22 04:45:21;;;;;;;16.95;3.80;;;;;;;4.26;100.00;99178.69;4996032;28;20584;-69
2022/11/22 04:47:58;;;;;;;19.38;4.47;;;;;;;4.31;100.00;99192.41;5007370;28;20095;-69
2022/11/22 04:53:08;;;;;;;18.40;5.50;;;;;;;4.18;100.00;99190.72;4989419;28;20068;-69
2022/11/22 04:55:34;;;;;;;16.15;4.00;;;;;;;4.13;100.00;99187.84;5010350;28;20053;-69
2022/11/22 04:57:59;;;;;;;16.92;3.90;;;;;;;4.14;100.00;99190.34;5008463;28;20032;-68
2022/11/22 05:00:26;;;;;;;15.65;4.15;;;;;;;4.11;100.00;99187.28;5006273;28;20021;-69
2022/11/22 05:02:51;;;;;;;14.13;3.45;;;;;;;4.10;100.00;99191.84;5006637;28;20057;-69
2022/11/22 05:05:17;;;;;;;13.00;3.53;;;;;;;4.07;100.00;99205.09;5006648;28;20070;-68
2022/11/22 05:07:42;;;;;;;16.67;4.15;;;;;;;4.09;100.00;99203.78;5005148;28;20058;-69
2022/11/22 05:10:08;;;;;;;12.82;4.00;;;;;;;4.07;100.00;99211.34;4988985;28;20041;-69
2022/11/22 05:12:33;;;;;;;15.98;4.47;;;;;;;4.04;100.00;99200.91;4992148;28;20109;-70
2022/11/22 05:14:58;;;;;;;12.98;4.00;;;;;;;4.04;100.00;99203.63;4998329;28;20109;-68
2022/11/22 05:17:24;;;;;;;13.30;4.80;;;;;;;4.02;100.00;99203.03;5009275;28;20058;-68
2022/11/22 05:19:49;;;;;;;14.63;3.25;;;;;;;4.01;100.00;99201.41;5007267;28;20420;-69
2022/11/22 05:22:14;;;;;;;15.70;4.03;;;;;;;4.01;100.00;99206.00;5004893;28;20030;-69
2022/11/22 05:24:40;;;;;;;17.33;3.65;;;;;;;4.00;100.00;99205.16;5026697;28;20030;-69
2022/11/22 05:27:05;;;;;;;14.88;4.05;;;;;;;3.97;100.00;99204.78;5006911;28;20036;-69
2022/11/22 05:29:30;;;;;;;20.33;4.00;;;;;;;3.95;100.00;99207.72;5005830;28;20045;-70
2022/11/22 05:31:55;;;;;;;15.68;3.47;;;;;;;3.92;100.00;99210.06;5006546;28;20053;-70
2022/11/22 05:34:21;;;;;;;12.68;3.55;;;;;;;3.92;100.00;99208.19;5006048;28;20180;-67
2022/11/22 05:36:46;;;;;;;11.35;3.47;;;;;;;3.89;100.00;99205.91;5016380;28;20032;-69
2022/11/22 05:39:11;;;;;;;15.25;3.95;;;;;;;3.87;100.00;99205.31;5010147;28;20350;-68
2022/11/22 05:41:36;;;;;;;12.93;3.63;;;;;;;3.90;100.00;99200.28;4987910;28;20045;-69
2022/11/22 05:44:02;;;;;;;11.85;3.60;;;;;;;3.90;100.00;99197.56;4994310;28;20098;-69
2022/11/22 05:46:29;;;;;;;11.35;3.22;;;;;;;3.88;100.00;99199.66;5010699;28;20034;-69
2022/11/22 05:48:56;;;;;;;18.15;3.85;;;;;;;3.81;100.00;99204.34;5008865;28;20018;-70
2022/11/22 05:51:23;;;;;;;13.68;3.65;;;;;;;3.79;100.00;99205.63;5006608;28;20395;-69
2022/11/22 05:53:49;;;;;;;14.55;4.00;;;;;;;3.79;100.00;99197.47;4997980;28;20072;-69
2022/11/22 05:56:22;;;;;;;11.32;3.17;;;;;;;3.75;100.00;99197.13;5019630;28;20061;-69
2022/11/22 05:58:48;;;;;;;15.40;3.95;;;;;;;3.75;100.00;99201.69;5030185;28;20104;-69
2022/11/22 06:01:16;;;;;;;15.98;3.95;;;;;;;3.72;100.00;99197.56;5029985;28;20869;-67
2022/11/22 06:03:42;;;;;;;14.23;4.35;;;;;;;3.72;100.00;99199.44;5024705;28;20041;-68
2022/11/22 06:06:08;;;;;;;12.75;3.45;;;;;;;3.72;100.00;99194.84;5008480;28;20049;-70
2022/11/22 06:08:35;;;;;;;10.10;3.53;;;;;;;3.72;100.00;99199.44;5005393;28;20128;-70
2022/11/22 06:11:18;;;;;;;12.75;3.92;;;;;;;3.67;100.00;99200.13;5028095;28;20041;-70
2022/11/22 06:13:46;;;;;;;12.32;3.60;;;;;;;3.65;100.00;99202.25;5015799;28;20054;-69
2022/11/22 06:16:11;;;;;;;8.53;3.50;;;;;;;3.65;100.00;99210.41;5009944;28;20030;-69
2022/11/22 06:18:37;;;;;;;11.25;3.30;;;;;;;3.64;100.00;99203.28;5009797;28;20295;-70
2022/11/22 06:21:07;;;;;;;12.65;3.97;;;;;;;3.68;100.00;99211.81;5007089;28;20038;-68
2022/11/22 06:23:32;;;;;;;12.85;3.92;;;;;;;3.67;100.00;99211.00;5013455;28;20026;-69
2022/11/22 06:26:00;;;;;;;11.45;2.88;;;;;;;3.62;100.00;99208.94;5016990;28;20041;-69
2022/11/22 06:28:28;;;;;;;11.70;4.13;;;;;;;3.61;100.00;99206.47;5008237;28;20042;-70
2022/11/22 06:30:53;;;;;;;9.30;4.80;;;;;;;3.57;100.00;99210.69;5019798;28;20098;-69
2022/11/22 06:33:18;;;;;;;10.75;3.80;;;;;;;3.57;100.00;99211.50;5010234;28;20076;-68
2022/11/22 06:35:44;;;;;;;12.57;4.32;;;;;;;3.57;100.00;99208.78;5023802;28;20025;-68
2022/11/22 06:38:09;;;;;;;14.00;3.85;;;;;;;3.57;100.00;99211.50;5015061;28;20591;-69
2022/11/22 06:40:34;;;;;;;13.60;3.83;;;;;;;3.57;100.00;99207.97;5022069;28;20025;-69
2022/11/22 06:42:59;;;;;;;15.95;4.28;;;;;;;3.56;100.00;99214.47;5005331;28;20137;-69
2022/11/22 06:45:25;;;;;;;9.60;3.83;;;;;;;3.55;100.00;99216.34;5016392;28;20037;-69
2022/11/22 06:47:50;;;;;;;13.25;3.92;;;;;;;3.54;100.00;99219.25;5006985;28;20057;-67
2022/11/22 06:50:15;;;;;;;13.25;3.83;;;;;;;3.58;100.00;99223.19;5014827;28;20029;-69
2022/11/22 06:52:40;;;;;;;10.30;3.70;;;;;;;3.61;100.00;99225.47;5011190;28;20129;-69
2022/11/22 06:55:06;;;;;;;13.55;4.03;;;;;;;3.67;100.00;99224.56;5024995;28;20037;-69
2022/11/22 06:57:31;;;;;;;10.25;3.47;;;;;;;3.73;100.00;99231.78;5025558;28;20063;-69
2022/11/22 06:59:57;;;;;;;12.48;3.20;;;;;;;3.85;100.00;99229.16;5028452;28;20124;-69
2022/11/22 07:02:22;;;;;;;14.63;3.88;;;;;;;3.85;100.00;99230.00;5020439;28;20045;-69
2022/11/22 07:04:47;;;;;;;14.55;3.80;;;;;;;3.89;100.00;99242.06;5006658;28;20046;-68
2022/11/22 07:07:13;;;;;;;12.60;4.30;;;;;;;3.89;100.00;99244.75;5008283;28;20037;-69
2022/11/22 07:09:38;;;;;;;10.27;3.97;;;;;;;3.94;100.00;99249.53;5009126;28;20461;-69
2022/11/22 07:12:04;;;;;;;12.48;3.97;;;;;;;3.97;100.00;99251.78;5014797;28;20038;-68
2022/11/22 07:14:29;;;;;;;10.73;4.75;;;;;;;4.00;100.00;99256.75;5007479;28;20377;-69
2022/11/22 07:16:55;;;;;;;9.13;3.92;;;;;;;4.03;100.00;99248.16;5007977;28;20052;-68
2022/11/22 07:19:20;;;;;;;13.45;3.88;;;;;;;4.05;100.00;99246.03;5021487;28;20038;-70
2022/11/22 07:21:45;;;;;;;12.32;3.78;;;;;;;4.10;100.00;99261.66;5006739;28;20426;-69
2022/11/22 07:24:11;;;;;;;10.80;3.10;;;;;;;4.12;100.00;99244.09;5005549;28;20137;-70
2022/11/22 07:26:36;;;;;;;11.82;3.08;;;;;;;4.14;100.00;99250.09;5027419;28;20058;-69
2022/11/22 07:29:02;;;;;;;8.88;3.53;;;;;;;4.16;100.00;99247.19;5026338;28;20644;-70
2022/11/22 07:31:28;;;;;;;10.48;3.50;;;;;;;4.17;100.00;99246.13;5014234;28;20038;-69
2022/11/22 07:33:55;;;;;;;8.50;3.30;;;;;;;4.24;100.00;99254.19;5016666;28;20128;-69
2022/11/22 07:36:21;;;;;;;13.25;3.42;;;;;;;4.22;100.00;99259.03;5027648;28;20361;-70
2022/11/22 07:38:47;;;;;;;12.43;4.25;;;;;;;4.22;100.00;99254.41;5001649;28;20026;-68
2022/11/22 07:41:14;;;;;;;15.05;4.47;;;;;;;4.22;100.00;99262.56;5024793;28;20200;-71
2022/11/22 07:43:40;;;;;;;13.88;3.70;;;;;;;4.23;100.00;99266.13;5010471;28;20104;-70
2022/11/22 07:46:15;;;;;;;11.50;3.63;;;;;;;4.26;100.00;99262.91;5013839;28;20121;-69
2022/11/22 07:48:40;;;;;;;10.55;3.42;;;;;;;4.29;100.00;99262.47;5008492;28;20022;-69
2022/11/22 07:51:06;;;;;;;13.90;3.33;;;;;;;4.32;100.00;99256.59;5004211;28;20084;-70
2022/11/22 07:53:32;;;;;;;13.05;4.00;;;;;;;4.32;100.00;99253.88;5019070;28;20026;-68
2022/11/22 07:56:01;;;;;;;11.77;3.05;;;;;;;4.36;100.00;99260.53;5016883;28;20037;-70
2022/11/22 07:58:26;;;;;;;13.05;4.30;;;;;;;4.39;100.00;99252.72;5017045;28;20030;-68
2022/11/22 08:00:51;;;;;;;9.45;3.03;;;;;;;4.40;100.00;99265.25;5016513;28;20058;-70
2022/11/22 08:03:16;;;;;;;11.60;3.70;;;;;;;4.46;100.00;99257.22;5007885;28;20046;-70
2022/11/22 08:05:42;;;;;;;10.18;3.25;;;;;;;4.48;100.00;99255.13;5005579;28;20081;-69
2022/11/22 08:08:07;;;;;;;8.88;3.38;;;;;;;4.57;100.00;99262.72;5004729;28;20026;-69
2022/11/22 08:10:32;;;;;;;10.27;3.25;;;;;;;4.94;100.00;99265.31;5006321;28;20368;-69
2022/11/22 08:12:59;;;;;;;9.48;3.58;;;;;;;4.99;100.00;99262.72;5006596;28;20037;-70
2022/11/22 08:15:25;;;;;;;11.55;3.22;;;;;;;4.93;100.00;99260.94;5007623;28;20076;-69
2022/11/22 08:17:50;;;;;;;8.00;3.20;;;;;;;4.90;100.00;99255.97;5007154;28;20119;-69
2022/11/22 08:20:16;;;;;;;12.25;3.60;;;;;;;4.84;100.00;99259.63;5026108;28;20472;-71
2022/11/22 08:22:41;;;;;;;9.00;3.85;;;;;;;4.80;100.00;99269.31;5014366;28;20060;-68
2022/11/22 08:25:11;;;;;;;9.40;3.42;;;;;;;4.86;100.00;99268.38;5007415;28;20041;-70
2022/11/22 08:27:38;;;;;;;12.27;3.38;;;;;;;4.84;100.00;99268.59;5007463;28;20026;-70
2022/11/22 08:30:03;;;;;;;8.80;3.33;;;;;;;4.81;100.00;99255.47;5006694;28;20334;-71
2022/11/22 08:32:28;;;;;;;12.07;3.92;;;;;;;4.87;100.00;99257.28;5005530;28;20041;-69
2022/11/22 08:34:53;;;;;;;12.18;3.40;;;;;;;4.89;100.00;99266.03;5005624;28;20660;-70
2022/11/22 08:37:19;;;;;;;12.57;3.42;;;;;;;4.92;100.00;99267.47;5006003;28;20095;-71
2022/11/22 08:39:44;;;;;;;12.93;3.75;;;;;;;4.95;100.00;99266.97;5013776;28;20029;-71
2022/11/22 08:42:09;;;;;;;10.35;3.22;;;;;;;4.91;100.00;99266.59;5027191;28;20499;-70
2022/11/22 08:44:34;;;;;;;12.18;3.90;;;;;;;4.93;100.00;99271.84;5026937;28;20025;-70
2022/11/22 08:47:00;;;;;;;7.57;2.92;;;;;;;4.93;100.00;99278.09;5020340;28;20065;-72
2022/11/22 08:49:25;;;;;;;8.40;3.17;;;;;;;4.97;100.00;99266.72;4997604;28;20464;-69
2022/11/22 08:51:50;;;;;;;10.88;3.08;;;;;;;5.03;100.00;99282.16;4998578;28;20045;-68
2022/11/22 08:54:15;;;;;;;8.60;2.78;;;;;;;5.03;100.00;99279.44;4989693;28;20038;-70
2022/11/22 08:56:41;;;;;;;11.07;3.58;;;;;;;5.05;100.00;99274.56;4988257;28;20903;-71
2022/11/22 08:59:06;;;;;;;10.32;4.13;;;;;;;5.13;100.00;99276.97;4989523;28;20069;-70
2022/11/22 09:01:32;;;;;;;8.32;2.72;;;;;;;5.19;100.00;99265.97;4990762;28;20035;-70
2022/11/22 09:03:57;;;;;;;10.43;3.78;;;;;;;5.26;100.00;99278.63;4991012;28;20042;-68
2022/11/22 09:06:23;;;;;;;8.75;3.15;;;;;;;5.36;100.00;99270.72;4990352;28;20191;-70
2022/11/22 09:08:48;;;;;;;9.88;3.33;;;;;;;5.46;100.00;99271.78;4988281;28;20112;-71
2022/11/22 09:11:15;;;;;;;9.23;3.05;;;;;;;5.46;100.00;99277.22;4989073;28;20128;-70
2022/11/22 09:13:41;;;;;;;11.13;3.00;;;;;;;5.53;100.00;99279.84;4991973;28;20021;-69
2022/11/22 09:16:19;;;;;;;10.13;3.38;;;;;;;5.57;100.00;99281.03;4999913;28;20591;-71
2022/11/22 09:18:45;;;;;;;10.18;3.20;;;;;;;5.48;100.00;99287.91;5006285;28;20421;-71
2022/11/22 09:21:16;;;;;;;9.75;3.10;;;;;;;5.51;100.00;99290.13;4992417;28;20038;-71
2022/11/22 09:23:43;;;;;;;9.63;3.40;;;;;;;5.57;100.00;99297.34;4991820;28;20042;-71
2022/11/22 09:26:11;;;;;;;8.38;3.38;;;;;;;5.58;100.00;99296.31;4991459;28;20050;-71
2022/11/22 09:28:36;;;;;;;12.88;3.25;;;;;;;5.53;100.00;99289.94;4987309;28;20042;-71
2022/11/22 09:31:10;;;;;;;6.88;3.28;;;;;;;5.56;100.00;99298.44;4990200;28;20038;-69
2022/11/22 09:33:37;;;;;;;7.00;3.10;;;;;;;5.62;100.00;99288.47;4992209;28;20076;-73
2022/11/22 09:36:08;;;;;;;8.85;3.50;;;;;;;5.68;100.00;99293.00;4997131;28;20025;-70
2022/11/22 09:38:35;;;;;;;8.73;3.20;;;;;;;5.70;100.00;99283.50;5001112;28;20072;-71
2022/11/22 09:41:15;;;;;;;8.20;3.20;;;;;;;5.77;100.00;99285.28;4993572;28;20022;-68
2022/11/22 09:43:55;;;;;;;11.15;3.53;;;;;;;5.84;100.00;99292.28;4998163;28;20026;-68
2022/11/22 09:46:32;;;;;;;8.70;3.10;;;;;;;5.88;100.00;99289.88;4996247;28;20021;-71
2022/11/22 09:49:03;;;;;;;10.40;3.40;;;;;;;5.94;100.00;99289.81;4999017;28;20038;-71
2022/11/22 09:51:36;;;;;;;6.72;2.70;;;;;;;6.02;100.00;99283.16;4991085;28;20105;-71
2022/11/22 09:54:10;;;;;;;10.43;3.53;;;;;;;6.01;99.90;99281.50;4991999;28;20041;-69
2022/11/22 09:56:37;;;;;;;6.97;2.97;;;;;;;6.03;100.00;99284.81;4994030;28;20076;-68
2022/11/22 09:59:14;;;;;;;7.80;2.78;;;;;;;5.98;100.00;99287.41;5006920;28;20026;-71
2022/11/22 10:01:47;;;;;;;10.23;3.28;;;;;;;6.02;100.00;99288.59;5002221;28;20045;-69
2022/11/22 10:04:18;;;;;;;6.72;2.72;;;;;;;6.08;99.59;99292.25;4993553;28;20045;-71
2022/11/22 10:06:56;;;;;;;6.97;3.05;;;;;;;6.13;99.50;99297.81;4991529;28;20065;-68
2022/11/22 10:09:35;;;;;;;7.75;2.92;;;;;;;6.15;100.00;99299.25;4991732;28;20121;-71
2022/11/22 10:12:26;;;;;;;8.98;2.70;;;;;;;6.24;98.55;99294.28;5007086;28;20468;-70
2022/11/22 10:15:07;;;;;;;6.60;2.70;;;;;;;6.22;98.80;99299.94;4999491;28;20164;-70
2022/11/22 10:17:53;;;;;;;6.13;2.72;;;;;;;6.28;98.35;99300.06;4997069;28;20037;-71
2022/11/22 10:20:21;;;;;;;7.70;2.50;;;;;;;6.19;98.08;99294.16;4987112;28;20699;-71
2022/11/22 10:22:47;;;;;;;10.77;2.75;;;;;;;6.16;97.79;99292.72;4984384;28;20052;-70
2022/11/22 10:25:38;;;;;;;6.35;2.17;;;;;;;6.22;98.17;99291.75;4991247;28;20083;-73
2022/11/22 10:28:17;;;;;;;8.45;2.70;;;;;;;6.17;98.85;99280.75;4994548;28;20026;-72
2022/11/22 10:30:59;;;;;;;5.57;2.40;;;;;;;6.21;99.12;99276.50;5002971;28;20115;-70
2022/11/22 10:33:37;;;;;;;10.98;2.92;;;;;;;6.29;99.04;99275.28;4996669;28;20049;-72
2022/11/22 10:36:26;;;;;;;;;;;;;;;6.32;98.12;99276.69;4998852;28;20105;-73
2022/11/22 10:39:06;;;;;;;7.40;2.55;;;;;;;6.23;98.79;99279.81;5011736;28;19946;-70
2022/11/22 10:41:47;;;;;;;7.25;3.25;;;;;;;6.21;100.00;99286.56;4997917;28;20035;-72
2022/11/22 10:44:30;;;;;;;6.10;2.50;;;;;;;6.20;99.76;99282.19;4990541;28;20084;-72
2022/11/22 10:47:07;;;;;;;8.50;2.63;;;;;;;6.19;100.00;99269.63;4987755;28;20449;-73
2022/11/22 10:49:57;;;;;;;6.60;2.30;;;;;;;6.19;100.00;99275.91;4987520;28;20040;-71
2022/11/22 10:52:28;;;;;;;8.18;2.50;;;;;;;6.24;100.00;99280.66;5002813;28;20427;-73
2022/11/22 10:55:18;;;;;;;6.25;2.78;;;;;;;6.29;100.00;99269.03;4985492;28;20018;-74
2022/11/22 10:58:06;;;;;;;6.47;2.20;;;;;;;6.28;100.00;99268.16;4996303;28;20033;-72
2022/11/22 11:00:33;;;;;;;6.07;2.00;;;;;;;6.36;99.37;99270.53;5005921;28;20064;-69
2022/11/22 11:03:17;;;;;;;6.37;2.30;;;;;;;6.33;100.00;99262.81;4995179;28;20034;-71
2022/11/22 11:05:52;;;;;;;6.05;2.30;;;;;;;6.38;100.00;99262.09;5004153;28;20080;-72
2022/11/22 11:08:37;;;;;;;5.35;2.40;;;;;;;6.46;99.66;99256.25;5009633;28;20049;-71
2022/11/22 11:11:03;;;;;;;4.40;2.20;;;;;;;6.47;99.52;99250.56;4996929;28;20426;-69
2022/11/22 11:13:35;;;;;;;6.68;2.58;;;;;;;6.58;98.26;99248.03;5011008;28;20032;-73
2022/11/22 11:16:06;;;;;;;5.40;2.08;;;;;;;6.58;98.75;99254.31;4996647;28;20117;-69
2022/11/22 11:19:01;;;;;;;4.85;2.85;;;;;;;6.63;97.79;99239.94;4992785;28;20038;-70
2022/11/22 11:21:26;;;;;;;4.30;2.13;;;;;;;6.62;97.29;99232.84;5001986;28;20113;-72
2022/11/22 11:23:52;;;;;;;4.10;2.00;;;;;;;6.65;97.76;99238.63;5005519;28;20116;-72
2022/11/22 11:26:20;;;;;;;4.93;1.95;;;;;;;6.64;96.48;99234.25;4998585;28;20044;-70
2022/11/22 11:28:45;;;;;;;3.78;2.05;;;;;;;6.65;96.05;99226.91;4998183;28;20080;-69
2022/11/22 11:31:17;;;;;;;4.63;2.28;;;;;;;6.62;97.05;99221.91;5006470;28;20144;-68
2022/11/22 11:33:43;;;;;;;5.53;2.08;;;;;;;6.67;97.29;99224.75;5013815;28;20030;-70
2022/11/22 11:36:20;;;;;;;3.80;2.28;;;;;;;6.65;97.28;99227.72;5008721;28;20117;-71
2022/11/22 11:38:56;;;;;;;3.63;2.03;;;;;;;6.71;95.62;99221.28;5008240;28;20025;-69
2022/11/22 11:41:29;;;;;;;4.13;2.22;;;;;;;6.70;96.35;99225.09;4998768;28;20042;-69
2022/11/22 11:43:56;;;;;;;3.78;1.80;;;;;;;6.69;96.02;99220.72;4990632;28;20048;-72